createdAt,value
2022-10-28T00:04:19.469Z,95.16
2022-10-28T00:09:25.340Z,95.44
2022-10-28T00:14:32.959Z,95.19
2022-10-28T00:19:40.020Z,94.97
2022-10-28T00:24:46.888Z,96.08
2022-10-28T00:29:54.186Z,95.57
2022-10-28T00:35:01.220Z,94.64
2022-10-28T00:40:09.491Z,95.39
2022-10-28T00:45:16.695Z,96.11
2022-10-28T00:50:32.999Z,95.44
2022-10-28T00:55:40.667Z,94.92
2022-10-28T01:00:47.560Z,94.40
2022-10-28T01:05:55.804Z,94.51
2022-10-28T01:11:51.564Z,95.85
2022-10-28T01:27:57.258Z,96.27
2022-10-28T01:33:10.068Z,96.25
2022-10-28T01:38:33.611Z,96.50
2022-10-28T01:43:47.867Z,97.42
2022-10-28T01:48:59.040Z,98.26
2022-10-28T01:54:09.249Z,98.18
2022-10-28T01:59:21.324Z,98.39
2022-10-28T02:04:28.492Z,98.88
2022-10-28T02:09:52.528Z,98.37
2022-10-28T02:15:33.586Z,97.58
2022-10-28T02:20:47.027Z,97.91
2022-10-28T02:26:02.174Z,98.11
2022-10-28T02:31:20.423Z,98.59
2022-10-28T02:36:30.662Z,99.09
2022-10-28T02:41:45.328Z,99.69
2022-10-28T02:46:55.536Z,99.15
2022-10-28T02:52:05.089Z,99.44
2022-10-28T02:57:15.245Z,99.42
2022-10-28T03:02:22.570Z,99.73
2022-10-28T03:07:29.551Z,99.81
2022-10-28T03:12:36.690Z,100.00
2022-10-28T03:17:42.684Z,99.89
2022-10-28T03:22:49.751Z,99.89
2022-10-28T03:27:57.394Z,99.92
2022-10-28T03:33:04.351Z,99.91
2022-10-28T03:38:11.389Z,99.89
2022-10-28T03:43:18.725Z,99.54
2022-10-28T03:48:26.988Z,99.75
2022-10-28T03:53:34.217Z,99.97
2022-10-28T03:58:41.512Z,100.00
2022-10-28T04:03:48.934Z,100.00
2022-10-28T04:08:56.116Z,100.00
2022-10-28T04:14:01.493Z,100.00
2022-10-28T04:19:09.087Z,99.52
2022-10-28T04:24:16.244Z,97.83
2022-10-28T04:29:23.896Z,97.33
2022-10-28T04:34:29.477Z,97.98
2022-10-28T04:39:36.808Z,98.62
2022-10-28T04:44:42.436Z,98.20
2022-10-28T04:49:49.664Z,98.84
2022-10-28T04:54:56.627Z,99.30
2022-10-28T05:00:03.790Z,99.57
2022-10-28T05:05:12.288Z,99.76
2022-10-28T05:10:19.338Z,100.00
2022-10-28T05:15:26.781Z,99.24
2022-10-28T05:20:34.301Z,98.45
2022-10-28T05:25:41.352Z,99.10
2022-10-28T05:30:49.027Z,99.49
2022-10-28T05:35:56.801Z,99.63
2022-10-28T05:41:04.692Z,99.72
2022-10-28T05:46:11.783Z,100.00
2022-10-28T05:51:22.622Z,99.79
2022-10-28T05:56:30.323Z,99.79
2022-10-28T06:01:37.588Z,99.63
2022-10-28T06:06:44.534Z,99.50
2022-10-28T06:11:50.251Z,99.61
2022-10-28T06:16:56.923Z,99.89
2022-10-28T06:22:04.292Z,99.88
2022-10-28T06:27:12.737Z,100.00
2022-10-28T06:32:20.347Z,100.00
2022-10-28T06:37:29.479Z,100.00
2022-10-28T06:42:37.369Z,100.00
2022-10-28T06:47:46.233Z,100.00
2022-10-28T06:52:54.308Z,100.00
2022-10-28T06:58:03.899Z,100.00
2022-10-28T07:03:18.913Z,100.00
2022-10-28T07:08:27.604Z,100.00
2022-10-28T07:13:34.608Z,100.00
2022-10-28T07:18:42.406Z,100.00
2022-10-28T07:23:51.451Z,100.00
2022-10-28T07:28:58.407Z,100.00
2022-10-28T07:34:04.300Z,100.00
2022-10-28T07:39:12.748Z,100.00
2022-10-28T07:44:19.636Z,100.00
2022-10-28T07:49:26.957Z,100.00
2022-10-28T07:54:34.170Z,100.00
2022-10-28T07:59:41.177Z,100.00
2022-10-28T08:04:48.396Z,100.00
2022-10-28T08:09:56.572Z,100.00
2022-10-28T08:20:55.240Z,100.00
2022-10-28T08:26:02.977Z,99.80
2022-10-28T08:31:12.472Z,99.29
2022-10-28T08:36:19.964Z,98.66
2022-10-28T08:41:37.237Z,98.42
2022-10-28T08:46:58.394Z,97.75
2022-10-28T08:52:12.884Z,96.35
2022-10-28T08:57:23.043Z,95.66
2022-10-28T09:02:34.396Z,94.24
2022-10-28T09:07:41.351Z,93.06
2022-10-28T09:12:56.302Z,92.27
2022-10-28T09:18:18.853Z,91.28
2022-10-28T09:23:29.936Z,89.82
2022-10-28T09:28:50.798Z,89.21
2022-10-28T09:34:11.923Z,88.79
2022-10-28T09:39:26.823Z,88.43
2022-10-28T09:44:42.806Z,87.77
2022-10-28T09:49:52.880Z,87.07
2022-10-28T09:55:07.685Z,86.61
2022-10-28T10:00:18.078Z,85.93
2022-10-28T10:05:26.149Z,85.08
2022-10-28T10:10:49.763Z,84.94
2022-10-28T10:16:01.456Z,83.98
2022-10-28T10:21:08.919Z,83.80
2022-10-28T10:26:18.817Z,82.71
2022-10-28T10:31:29.872Z,82.37
2022-10-28T10:36:37.238Z,82.02
2022-10-28T10:41:46.142Z,80.97
2022-10-28T10:47:26.653Z,80.41
2022-10-28T10:52:33.901Z,80.53
2022-10-28T10:57:41.550Z,79.82
2022-10-28T11:02:54.982Z,78.00
2022-10-28T11:08:07.068Z,77.35
2022-10-28T11:13:28.458Z,76.68
2022-10-28T11:18:44.875Z,76.64
2022-10-28T11:24:02.350Z,76.92
2022-10-28T11:29:15.648Z,74.91
2022-10-28T11:34:40.527Z,73.91
2022-10-28T11:40:01.396Z,73.56
2022-10-28T11:45:17.588Z,73.63
2022-10-28T11:50:36.486Z,73.27
2022-10-28T11:55:49.528Z,72.24
2022-10-28T12:01:10.877Z,71.32
2022-10-28T12:06:28.944Z,71.00
2022-10-28T12:11:46.965Z,69.77
2022-10-28T12:17:04.575Z,68.43
2022-10-28T12:22:19.507Z,68.67
2022-10-28T12:27:29.839Z,68.07
2022-10-28T12:32:39.325Z,67.70
2022-10-28T12:37:51.300Z,68.23
2022-10-28T12:43:05.150Z,67.63
2022-10-28T12:48:23.967Z,67.15
2022-10-28T12:53:38.008Z,68.00
2022-10-28T12:58:56.296Z,67.26
2022-10-28T13:04:04.077Z,67.34
2022-10-28T13:09:39.261Z,66.51
2022-10-28T13:20:32.206Z,65.70
2022-10-28T13:25:57.368Z,66.22
2022-10-28T13:31:09.193Z,66.49
2022-10-28T13:36:22.797Z,65.25
2022-10-28T13:41:34.282Z,64.55
2022-10-28T13:47:18.287Z,64.45
2022-10-28T13:52:25.355Z,65.22
2022-10-28T13:57:36.580Z,64.80
2022-10-28T14:02:48.088Z,65.28
2022-10-28T14:07:58.606Z,66.18
2022-10-28T14:18:43.121Z,66.46
2022-10-28T14:24:12.076Z,66.82
2022-10-28T14:29:31.103Z,67.53
2022-10-28T14:34:47.307Z,67.93
2022-10-28T14:40:13.344Z,68.45
2022-10-28T14:45:34.199Z,69.14
2022-10-28T14:50:47.058Z,69.39
2022-10-28T14:56:07.999Z,70.11
2022-10-28T15:01:39.585Z,70.70
2022-10-28T15:06:48.168Z,71.27
2022-10-28T15:12:02.307Z,71.75
2022-10-28T15:17:21.184Z,72.65
2022-10-28T15:22:30.970Z,73.20
2022-10-28T15:27:40.144Z,73.85
2022-10-28T15:32:47.318Z,74.35
2022-10-28T15:37:55.167Z,75.03
2022-10-28T15:43:04.617Z,75.67
2022-10-28T15:48:16.099Z,76.23
2022-10-28T15:53:39.676Z,76.98
2022-10-28T15:58:48.357Z,77.64
2022-10-28T16:03:55.685Z,78.47
2022-10-28T16:09:17.942Z,78.80
2022-10-28T16:14:35.381Z,79.22
2022-10-28T16:19:44.789Z,79.68
2022-10-28T16:24:53.870Z,79.79
2022-10-28T16:30:00.975Z,80.46
2022-10-28T16:35:16.700Z,81.37
2022-10-28T16:40:49.904Z,81.89
2022-10-28T16:45:51.686Z,81.94
2022-10-28T16:51:00.987Z,82.29
2022-10-28T16:56:13.437Z,82.35
2022-10-28T17:01:24.282Z,82.28
2022-10-28T17:06:33.623Z,82.56
2022-10-28T17:11:43.330Z,82.71
2022-10-28T17:16:51.627Z,82.87
2022-10-28T17:21:58.555Z,83.67
2022-10-28T17:27:05.985Z,84.10
2022-10-28T17:32:13.674Z,84.00
2022-10-28T17:37:20.916Z,84.22
2022-10-28T17:42:28.481Z,84.24
2022-10-28T17:47:37.148Z,85.32
2022-10-28T17:52:44.504Z,86.03
2022-10-28T17:57:51.658Z,85.89
2022-10-28T18:02:59.877Z,85.59
2022-10-28T18:08:07.540Z,85.91
2022-10-28T18:13:14.370Z,86.06
2022-10-28T18:18:21.641Z,86.47
2022-10-28T18:23:28.729Z,86.95
2022-10-28T18:28:37.626Z,87.00
2022-10-28T18:33:46.319Z,87.33
2022-10-28T18:38:53.502Z,87.93
2022-10-28T18:44:02.436Z,88.47
2022-10-28T18:49:09.450Z,89.50
2022-10-28T18:58:04.940Z,89.11
2022-10-28T19:03:21.169Z,89.36
2022-10-28T19:08:28.037Z,90.36
2022-10-28T19:13:35.228Z,90.37
2022-10-28T19:23:22.159Z,90.59
2022-10-28T19:28:26.733Z,89.92
2022-10-28T19:33:31.446Z,90.40
2022-10-28T19:38:37.025Z,91.80
2022-10-28T19:43:41.153Z,92.41
2022-10-28T19:48:47.171Z,92.68
2022-10-28T19:53:52.389Z,92.25
2022-10-28T19:58:57.817Z,92.52
2022-10-28T20:04:01.352Z,92.19
2022-10-28T20:09:06.679Z,92.61
2022-10-28T20:14:11.994Z,93.67
2022-10-28T20:19:16.698Z,94.11
2022-10-28T20:24:20.362Z,94.68
2022-10-28T20:29:24.224Z,95.15
2022-10-28T20:34:27.981Z,94.90
2022-10-28T20:39:31.656Z,94.91
2022-10-28T20:44:36.706Z,95.03
2022-10-28T20:49:42.286Z,96.78
2022-10-28T20:54:46.057Z,97.55
2022-10-28T20:59:51.266Z,97.89
2022-10-28T21:04:56.217Z,97.92
2022-10-28T21:10:01.299Z,97.70
2022-10-28T21:15:08.969Z,97.57
2022-10-28T21:20:14.603Z,97.76
2022-10-28T21:25:18.300Z,97.34
2022-10-28T21:30:22.959Z,96.49
2022-10-28T21:35:27.171Z,96.92
2022-10-28T21:40:47.759Z,95.56
2022-10-28T21:45:52.865Z,95.51
2022-10-28T21:50:59.538Z,95.84
2022-10-28T21:56:10.064Z,95.38
2022-10-28T22:01:17.948Z,95.78
2022-10-28T22:06:21.766Z,95.74
2022-10-28T22:11:26.030Z,95.97
2022-10-28T22:22:08.655Z,97.10
2022-10-28T22:27:15.753Z,96.61
2022-10-28T22:32:22.716Z,96.36
2022-10-28T22:37:28.013Z,95.44
2022-10-28T22:42:35.619Z,95.39
2022-10-28T22:47:42.515Z,95.53
2022-10-28T22:52:49.745Z,95.20
2022-10-28T22:57:56.909Z,95.32
2022-10-28T23:03:04.120Z,95.74
2022-10-28T23:08:11.572Z,97.13
2022-10-28T23:13:18.405Z,96.31
2022-10-28T23:23:05.782Z,96.56
2022-10-28T23:28:14.222Z,96.74
2022-10-28T23:33:21.578Z,97.01
2022-10-28T23:38:28.907Z,96.24
2022-10-28T23:43:37.868Z,95.26
2022-10-28T23:48:45.201Z,94.35
2022-10-28T23:53:52.183Z,94.18
2022-10-28T23:58:59.811Z,94.44
